sensor_id;sensor_type;location;lat;lon;timestamp;P1;durP1;ratioP1;P2;durP2;ratioP2
64063;SDS011;50314;50.618;10.642;2023-03-01T00:01:01;4.85;;;3.08;;
64063;SDS011;50314;50.618;10.642;2023-03-01T00:03:31;5.63;;;3.03;;
64063;SDS011;50314;50.618;10.642;2023-03-01T00:05:57;4.60;;;2.92;;
64063;SDS011;50314;50.618;10.642;2023-03-01T00:08:23;4.85;;;3.42;;
64063;SDS011;50314;50.618;10.642;2023-03-01T00:10:49;4.93;;;3.30;;
64063;SDS011;50314;50.618;10.642;2023-03-01T00:13:14;4.32;;;2.83;;
64063;SDS011;50314;50.618;10.642;2023-03-01T00:15:40;4.93;;;2.90;;
64063;SDS011;50314;50.618;10.642;2023-03-01T00:18:09;4.28;;;2.92;;
64063;SDS011;50314;50.618;10.642;2023-03-01T00:20:34;4.90;;;2.78;;
64063;SDS011;50314;50.618;10.642;2023-03-01T00:23:00;4.88;;;3.17;;
64063;SDS011;50314;50.618;10.642;2023-03-01T00:25:25;5.40;;;3.03;;
64063;SDS011;50314;50.618;10.642;2023-03-01T00:27:51;5.50;;;3.05;;
64063;SDS011;50314;50.618;10.642;2023-03-01T00:30:16;4.47;;;2.85;;
64063;SDS011;50314;50.618;10.642;2023-03-01T00:32:42;4.20;;;2.50;;
64063;SDS011;50314;50.618;10.642;2023-03-01T00:35:07;4.45;;;2.70;;
64063;SDS011;50314;50.618;10.642;2023-03-01T00:37:33;4.75;;;2.72;;
64063;SDS011;50314;50.618;10.642;2023-03-01T00:39:58;4.63;;;2.97;;
64063;SDS011;50314;50.618;10.642;2023-03-01T00:42:24;3.88;;;2.72;;
64063;SDS011;50314;50.618;10.642;2023-03-01T00:44:49;4.32;;;2.38;;
64063;SDS011;50314;50.618;10.642;2023-03-01T00:47:14;4.68;;;2.97;;
64063;SDS011;50314;50.618;10.642;2023-03-01T00:49:40;3.90;;;2.58;;
64063;SDS011;50314;50.618;10.642;2023-03-01T00:52:05;4.45;;;2.70;;
64063;SDS011;50314;50.618;10.642;2023-03-01T00:54:31;4.88;;;2.70;;
64063;SDS011;50314;50.618;10.642;2023-03-01T00:56:56;4.13;;;2.70;;
64063;SDS011;50314;50.618;10.642;2023-03-01T00:59:22;4.93;;;2.92;;
64063;SDS011;50314;50.618;10.642;2023-03-01T01:01:47;4.40;;;2.80;;
64063;SDS011;50314;50.618;10.642;2023-03-01T01:04:13;4.25;;;2.55;;
64063;SDS011;50314;50.618;10.642;2023-03-01T01:06:40;4.72;;;3.08;;
64063;SDS011;50314;50.618;10.642;2023-03-01T01:09:08;4.07;;;2.83;;
64063;SDS011;50314;50.618;10.642;2023-03-01T01:11:42;3.83;;;2.30;;
64063;SDS011;50314;50.618;10.642;2023-03-01T01:14:08;4.60;;;3.08;;
64063;SDS011;50314;50.618;10.642;2023-03-01T01:16:34;3.95;;;2.70;;
64063;SDS011;50314;50.618;10.642;2023-03-01T01:19:00;4.40;;;2.50;;
64063;SDS011;50314;50.618;10.642;2023-03-01T01:21:25;3.53;;;2.40;;
64063;SDS011;50314;50.618;10.642;2023-03-01T01:23:51;3.58;;;2.42;;
64063;SDS011;50314;50.618;10.642;2023-03-01T01:26:22;4.10;;;3.17;;
64063;SDS011;50314;50.618;10.642;2023-03-01T01:28:50;3.75;;;2.65;;
64063;SDS011;50314;50.618;10.642;2023-03-01T01:31:16;4.35;;;2.63;;
64063;SDS011;50314;50.618;10.642;2023-03-01T01:33:42;4.40;;;2.83;;
64063;SDS011;50314;50.618;10.642;2023-03-01T01:36:07;5.28;;;3.50;;
64063;SDS011;50314;50.618;10.642;2023-03-01T01:38:34;3.40;;;2.25;;
64063;SDS011;50314;50.618;10.642;2023-03-01T01:41:00;4.65;;;2.60;;
64063;SDS011;50314;50.618;10.642;2023-03-01T01:43:30;4.07;;;2.67;;
64063;SDS011;50314;50.618;10.642;2023-03-01T01:46:03;4.63;;;2.88;;
64063;SDS011;50314;50.618;10.642;2023-03-01T01:48:44;3.42;;;2.50;;
64063;SDS011;50314;50.618;10.642;2023-03-01T01:51:14;3.33;;;2.35;;
64063;SDS011;50314;50.618;10.642;2023-03-01T01:53:45;4.32;;;2.63;;
64063;SDS011;50314;50.618;10.642;2023-03-01T01:56:16;3.95;;;2.70;;
64063;SDS011;50314;50.618;10.642;2023-03-01T01:58:43;3.65;;;2.33;;
64063;SDS011;50314;50.618;10.642;2023-03-01T02:01:10;4.15;;;2.67;;
64063;SDS011;50314;50.618;10.642;2023-03-01T02:03:36;3.70;;;2.78;;
64063;SDS011;50314;50.618;10.642;2023-03-01T02:08:35;4.10;;;2.67;;
64063;SDS011;50314;50.618;10.642;2023-03-01T02:11:03;4.55;;;2.53;;
64063;SDS011;50314;50.618;10.642;2023-03-01T02:13:30;3.92;;;2.35;;
64063;SDS011;50314;50.618;10.642;2023-03-01T02:18:22;3.20;;;2.47;;
64063;SDS011;50314;50.618;10.642;2023-03-01T02:23:30;3.70;;;2.42;;
64063;SDS011;50314;50.618;10.642;2023-03-01T02:26:15;4.05;;;2.70;;
64063;SDS011;50314;50.618;10.642;2023-03-01T02:28:46;4.45;;;2.92;;
64063;SDS011;50314;50.618;10.642;2023-03-01T02:31:16;4.80;;;2.67;;
64063;SDS011;50314;50.618;10.642;2023-03-01T02:34:03;4.15;;;2.70;;
64063;SDS011;50314;50.618;10.642;2023-03-01T02:36:52;5.18;;;2.90;;
64063;SDS011;50314;50.618;10.642;2023-03-01T02:39:20;2.95;;;2.22;;
64063;SDS011;50314;50.618;10.642;2023-03-01T02:41:51;4.70;;;3.00;;
64063;SDS011;50314;50.618;10.642;2023-03-01T02:44:18;4.03;;;2.50;;
64063;SDS011;50314;50.618;10.642;2023-03-01T02:46:46;3.33;;;2.40;;
64063;SDS011;50314;50.618;10.642;2023-03-01T02:49:20;4.22;;;2.50;;
64063;SDS011;50314;50.618;10.642;2023-03-01T02:54:42;3.90;;;2.85;;
64063;SDS011;50314;50.618;10.642;2023-03-01T02:57:13;4.13;;;2.78;;
64063;SDS011;50314;50.618;10.642;2023-03-01T02:59:39;4.32;;;2.75;;
64063;SDS011;50314;50.618;10.642;2023-03-01T03:02:29;4.43;;;2.65;;
64063;SDS011;50314;50.618;10.642;2023-03-01T03:05:04;3.75;;;2.38;;
64063;SDS011;50314;50.618;10.642;2023-03-01T03:07:32;3.28;;;2.38;;
64063;SDS011;50314;50.618;10.642;2023-03-01T03:09:59;3.30;;;2.40;;
64063;SDS011;50314;50.618;10.642;2023-03-01T03:12:25;4.25;;;2.50;;
64063;SDS011;50314;50.618;10.642;2023-03-01T03:14:51;4.05;;;2.80;;
64063;SDS011;50314;50.618;10.642;2023-03-01T03:17:16;4.43;;;2.72;;
64063;SDS011;50314;50.618;10.642;2023-03-01T03:19:42;4.10;;;2.63;;
64063;SDS011;50314;50.618;10.642;2023-03-01T03:22:10;4.30;;;2.80;;
64063;SDS011;50314;50.618;10.642;2023-03-01T03:24:38;4.63;;;3.72;;
64063;SDS011;50314;50.618;10.642;2023-03-01T03:27:04;4.18;;;2.90;;
64063;SDS011;50314;50.618;10.642;2023-03-01T03:29:30;5.38;;;3.20;;
64063;SDS011;50314;50.618;10.642;2023-03-01T03:31:56;4.10;;;2.75;;
64063;SDS011;50314;50.618;10.642;2023-03-01T03:34:21;3.78;;;2.60;;
64063;SDS011;50314;50.618;10.642;2023-03-01T03:36:47;4.47;;;3.03;;
64063;SDS011;50314;50.618;10.642;2023-03-01T03:39:12;4.13;;;2.78;;
64063;SDS011;50314;50.618;10.642;2023-03-01T03:41:38;5.45;;;2.90;;
64063;SDS011;50314;50.618;10.642;2023-03-01T03:44:03;3.95;;;2.55;;
64063;SDS011;50314;50.618;10.642;2023-03-01T03:46:29;4.15;;;2.50;;
64063;SDS011;50314;50.618;10.642;2023-03-01T03:48:55;4.47;;;3.35;;
64063;SDS011;50314;50.618;10.642;2023-03-01T03:51:20;4.85;;;3.72;;
64063;SDS011;50314;50.618;10.642;2023-03-01T03:53:47;4.47;;;3.03;;
64063;SDS011;50314;50.618;10.642;2023-03-01T03:56:13;4.10;;;2.60;;
64063;SDS011;50314;50.618;10.642;2023-03-01T03:58:39;4.68;;;3.10;;
64063;SDS011;50314;50.618;10.642;2023-03-01T04:01:05;4.32;;;2.67;;
64063;SDS011;50314;50.618;10.642;2023-03-01T04:03:31;4.68;;;3.03;;
64063;SDS011;50314;50.618;10.642;2023-03-01T04:05:59;4.15;;;2.78;;
64063;SDS011;50314;50.618;10.642;2023-03-01T04:08:25;4.13;;;2.97;;
64063;SDS011;50314;50.618;10.642;2023-03-01T04:10:51;3.42;;;2.55;;
64063;SDS011;50314;50.618;10.642;2023-03-01T04:13:21;4.60;;;2.67;;
64063;SDS011;50314;50.618;10.642;2023-03-01T04:15:48;4.38;;;2.58;;
64063;SDS011;50314;50.618;10.642;2023-03-01T04:18:15;4.07;;;2.63;;
64063;SDS011;50314;50.618;10.642;2023-03-01T04:20:42;3.72;;;3.22;;
64063;SDS011;50314;50.618;10.642;2023-03-01T04:23:18;3.50;;;2.60;;
64063;SDS011;50314;50.618;10.642;2023-03-01T04:25:49;3.45;;;2.45;;
64063;SDS011;50314;50.618;10.642;2023-03-01T04:28:30;4.00;;;2.78;;
64063;SDS011;50314;50.618;10.642;2023-03-01T04:31:07;3.45;;;2.38;;
64063;SDS011;50314;50.618;10.642;2023-03-01T04:33:46;4.10;;;3.25;;
64063;SDS011;50314;50.618;10.642;2023-03-01T04:36:14;4.05;;;2.78;;
64063;SDS011;50314;50.618;10.642;2023-03-01T04:38:40;4.50;;;2.92;;
64063;SDS011;50314;50.618;10.642;2023-03-01T04:41:07;4.22;;;2.60;;
64063;SDS011;50314;50.618;10.642;2023-03-01T04:43:35;4.63;;;2.93;;
64063;SDS011;50314;50.618;10.642;2023-03-01T04:46:01;4.28;;;2.70;;
64063;SDS011;50314;50.618;10.642;2023-03-01T04:48:28;4.10;;;2.60;;
64063;SDS011;50314;50.618;10.642;2023-03-01T04:50:55;3.97;;;2.97;;
64063;SDS011;50314;50.618;10.642;2023-03-01T04:53:20;5.13;;;3.13;;
64063;SDS011;50314;50.618;10.642;2023-03-01T04:55:46;4.28;;;2.42;;
64063;SDS011;50314;50.618;10.642;2023-03-01T04:58:11;4.15;;;2.42;;
64063;SDS011;50314;50.618;10.642;2023-03-01T05:00:36;3.88;;;2.42;;
64063;SDS011;50314;50.618;10.642;2023-03-01T05:03:02;4.47;;;2.75;;
64063;SDS011;50314;50.618;10.642;2023-03-01T05:05:34;3.63;;;2.53;;
64063;SDS011;50314;50.618;10.642;2023-03-01T05:08:03;4.55;;;2.50;;
64063;SDS011;50314;50.618;10.642;2023-03-01T05:10:31;5.63;;;2.90;;
64063;SDS011;50314;50.618;10.642;2023-03-01T05:12:59;4.07;;;2.78;;
64063;SDS011;50314;50.618;10.642;2023-03-01T05:15:26;4.20;;;2.55;;
64063;SDS011;50314;50.618;10.642;2023-03-01T05:17:53;4.53;;;2.75;;
64063;SDS011;50314;50.618;10.642;2023-03-01T05:20:19;4.15;;;2.65;;
64063;SDS011;50314;50.618;10.642;2023-03-01T05:22:48;4.72;;;2.97;;
64063;SDS011;50314;50.618;10.642;2023-03-01T05:25:14;4.00;;;2.70;;
64063;SDS011;50314;50.618;10.642;2023-03-01T05:27:39;3.75;;;2.55;;
64063;SDS011;50314;50.618;10.642;2023-03-01T05:30:05;3.47;;;2.50;;
64063;SDS011;50314;50.618;10.642;2023-03-01T05:32:39;4.57;;;2.50;;
64063;SDS011;50314;50.618;10.642;2023-03-01T05:35:09;4.82;;;3.13;;
64063;SDS011;50314;50.618;10.642;2023-03-01T05:37:38;4.35;;;3.17;;
64063;SDS011;50314;50.618;10.642;2023-03-01T05:40:09;4.35;;;2.60;;
64063;SDS011;50314;50.618;10.642;2023-03-01T05:42:41;5.00;;;2.92;;
64063;SDS011;50314;50.618;10.642;2023-03-01T05:45:11;4.30;;;2.60;;
64063;SDS011;50314;50.618;10.642;2023-03-01T05:47:38;4.22;;;2.83;;
64063;SDS011;50314;50.618;10.642;2023-03-01T05:50:08;4.28;;;2.47;;
64063;SDS011;50314;50.618;10.642;2023-03-01T05:52:58;4.57;;;2.80;;
64063;SDS011;50314;50.618;10.642;2023-03-01T05:55:25;4.32;;;2.78;;
64063;SDS011;50314;50.618;10.642;2023-03-01T05:57:51;4.85;;;2.95;;
64063;SDS011;50314;50.618;10.642;2023-03-01T06:00:18;6.35;;;2.78;;
64063;SDS011;50314;50.618;10.642;2023-03-01T06:02:44;4.90;;;2.92;;
64063;SDS011;50314;50.618;10.642;2023-03-01T06:05:11;3.50;;;2.47;;
64063;SDS011;50314;50.618;10.642;2023-03-01T06:07:38;3.20;;;2.53;;
64063;SDS011;50314;50.618;10.642;2023-03-01T06:10:04;3.90;;;2.60;;
64063;SDS011;50314;50.618;10.642;2023-03-01T06:12:32;3.83;;;2.75;;
64063;SDS011;50314;50.618;10.642;2023-03-01T06:14:59;4.65;;;2.28;;
64063;SDS011;50314;50.618;10.642;2023-03-01T06:17:25;4.50;;;3.13;;
64063;SDS011;50314;50.618;10.642;2023-03-01T06:19:54;4.45;;;3.05;;
64063;SDS011;50314;50.618;10.642;2023-03-01T06:22:19;5.78;;;2.95;;
64063;SDS011;50314;50.618;10.642;2023-03-01T06:24:44;4.15;;;2.78;;
64063;SDS011;50314;50.618;10.642;2023-03-01T06:27:10;5.00;;;3.00;;
64063;SDS011;50314;50.618;10.642;2023-03-01T06:29:35;5.03;;;3.15;;
64063;SDS011;50314;50.618;10.642;2023-03-01T06:32:01;5.18;;;2.88;;
64063;SDS011;50314;50.618;10.642;2023-03-01T06:34:27;3.65;;;2.80;;
64063;SDS011;50314;50.618;10.642;2023-03-01T06:36:53;5.50;;;2.63;;
64063;SDS011;50314;50.618;10.642;2023-03-01T06:39:18;3.85;;;2.72;;
64063;SDS011;50314;50.618;10.642;2023-03-01T06:41:44;3.90;;;2.80;;
64063;SDS011;50314;50.618;10.642;2023-03-01T06:44:10;4.38;;;2.60;;
64063;SDS011;50314;50.618;10.642;2023-03-01T06:46:35;5.18;;;2.80;;
64063;SDS011;50314;50.618;10.642;2023-03-01T06:49:01;4.13;;;2.47;;
64063;SDS011;50314;50.618;10.642;2023-03-01T06:51:29;3.50;;;2.40;;
64063;SDS011;50314;50.618;10.642;2023-03-01T06:53:55;4.50;;;3.50;;
64063;SDS011;50314;50.618;10.642;2023-03-01T06:56:20;3.45;;;2.90;;
64063;SDS011;50314;50.618;10.642;2023-03-01T06:58:46;4.70;;;2.60;;
64063;SDS011;50314;50.618;10.642;2023-03-01T07:01:11;4.15;;;2.80;;
64063;SDS011;50314;50.618;10.642;2023-03-01T07:03:37;3.58;;;2.63;;
64063;SDS011;50314;50.618;10.642;2023-03-01T07:06:02;4.65;;;2.70;;
64063;SDS011;50314;50.618;10.642;2023-03-01T07:08:28;3.45;;;2.60;;
64063;SDS011;50314;50.618;10.642;2023-03-01T07:10:56;4.82;;;2.72;;
64063;SDS011;50314;50.618;10.642;2023-03-01T07:13:23;6.28;;;2.63;;
64063;SDS011;50314;50.618;10.642;2023-03-01T07:15:48;4.03;;;2.53;;
64063;SDS011;50314;50.618;10.642;2023-03-01T07:18:14;4.03;;;2.70;;
64063;SDS011;50314;50.618;10.642;2023-03-01T07:20:39;3.75;;;2.38;;
64063;SDS011;50314;50.618;10.642;2023-03-01T07:23:05;4.43;;;2.45;;
64063;SDS011;50314;50.618;10.642;2023-03-01T07:25:30;4.10;;;2.92;;
64063;SDS011;50314;50.618;10.642;2023-03-01T07:27:57;4.50;;;2.85;;
64063;SDS011;50314;50.618;10.642;2023-03-01T07:30:23;4.93;;;2.92;;
64063;SDS011;50314;50.618;10.642;2023-03-01T07:32:51;5.13;;;2.38;;
64063;SDS011;50314;50.618;10.642;2023-03-01T07:35:17;4.43;;;2.30;;
64063;SDS011;50314;50.618;10.642;2023-03-01T07:37:42;4.63;;;2.72;;
64063;SDS011;50314;50.618;10.642;2023-03-01T07:40:08;5.32;;;3.00;;
64063;SDS011;50314;50.618;10.642;2023-03-01T07:42:35;4.13;;;2.88;;
64063;SDS011;50314;50.618;10.642;2023-03-01T07:45:00;4.47;;;2.70;;
64063;SDS011;50314;50.618;10.642;2023-03-01T07:47:26;5.18;;;3.22;;
64063;SDS011;50314;50.618;10.642;2023-03-01T07:49:51;4.05;;;2.83;;
64063;SDS011;50314;50.618;10.642;2023-03-01T07:52:16;6.78;;;2.95;;
64063;SDS011;50314;50.618;10.642;2023-03-01T07:54:42;4.00;;;2.92;;
64063;SDS011;50314;50.618;10.642;2023-03-01T07:57:09;4.20;;;2.78;;
64063;SDS011;50314;50.618;10.642;2023-03-01T07:59:34;3.90;;;2.85;;
64063;SDS011;50314;50.618;10.642;2023-03-01T08:02:00;3.42;;;2.33;;
64063;SDS011;50314;50.618;10.642;2023-03-01T08:04:26;4.07;;;2.75;;
64063;SDS011;50314;50.618;10.642;2023-03-01T08:06:51;4.10;;;2.50;;
64063;SDS011;50314;50.618;10.642;2023-03-01T08:09:17;4.30;;;2.63;;
64063;SDS011;50314;50.618;10.642;2023-03-01T08:11:43;4.18;;;2.60;;
64063;SDS011;50314;50.618;10.642;2023-03-01T08:14:08;4.78;;;2.85;;
64063;SDS011;50314;50.618;10.642;2023-03-01T08:16:35;4.40;;;2.53;;
64063;SDS011;50314;50.618;10.642;2023-03-01T08:19:08;3.70;;;2.33;;
64063;SDS011;50314;50.618;10.642;2023-03-01T08:21:35;3.30;;;2.50;;
64063;SDS011;50314;50.618;10.642;2023-03-01T08:24:01;4.57;;;2.70;;
64063;SDS011;50314;50.618;10.642;2023-03-01T08:26:30;3.83;;;2.45;;
64063;SDS011;50314;50.618;10.642;2023-03-01T08:28:56;3.50;;;2.25;;
64063;SDS011;50314;50.618;10.642;2023-03-01T08:31:25;4.10;;;2.38;;
64063;SDS011;50314;50.618;10.642;2023-03-01T08:33:57;3.58;;;2.33;;
64063;SDS011;50314;50.618;10.642;2023-03-01T08:36:25;4.18;;;2.83;;
64063;SDS011;50314;50.618;10.642;2023-03-01T08:38:56;3.83;;;2.38;;
64063;SDS011;50314;50.618;10.642;2023-03-01T08:41:22;3.70;;;2.28;;
64063;SDS011;50314;50.618;10.642;2023-03-01T08:43:49;4.07;;;2.47;;
64063;SDS011;50314;50.618;10.642;2023-03-01T08:46:14;5.32;;;3.42;;
64063;SDS011;50314;50.618;10.642;2023-03-01T08:48:40;6.82;;;4.75;;
64063;SDS011;50314;50.618;10.642;2023-03-01T08:51:12;4.93;;;3.40;;
64063;SDS011;50314;50.618;10.642;2023-03-01T08:53:39;5.65;;;4.00;;
64063;SDS011;50314;50.618;10.642;2023-03-01T08:56:06;7.70;;;4.25;;
64063;SDS011;50314;50.618;10.642;2023-03-01T08:58:32;7.05;;;4.97;;
64063;SDS011;50314;50.618;10.642;2023-03-01T09:00:58;9.07;;;4.90;;
64063;SDS011;50314;50.618;10.642;2023-03-01T09:03:24;6.50;;;4.07;;
64063;SDS011;50314;50.618;10.642;2023-03-01T09:05:51;6.97;;;4.07;;
64063;SDS011;50314;50.618;10.642;2023-03-01T09:08:17;5.05;;;3.65;;
64063;SDS011;50314;50.618;10.642;2023-03-01T09:10:43;6.00;;;4.30;;
64063;SDS011;50314;50.618;10.642;2023-03-01T09:13:08;5.88;;;3.78;;
64063;SDS011;50314;50.618;10.642;2023-03-01T09:15:36;6.43;;;3.67;;
64063;SDS011;50314;50.618;10.642;2023-03-01T09:18:02;5.75;;;3.67;;
64063;SDS011;50314;50.618;10.642;2023-03-01T09:20:28;5.65;;;3.40;;
64063;SDS011;50314;50.618;10.642;2023-03-01T09:22:53;5.32;;;3.05;;
64063;SDS011;50314;50.618;10.642;2023-03-01T09:25:19;4.45;;;3.25;;
64063;SDS011;50314;50.618;10.642;2023-03-01T09:27:44;4.97;;;3.65;;
64063;SDS011;50314;50.618;10.642;2023-03-01T09:30:10;5.25;;;3.13;;
64063;SDS011;50314;50.618;10.642;2023-03-01T09:32:36;4.38;;;2.95;;
64063;SDS011;50314;50.618;10.642;2023-03-01T09:35:02;4.97;;;3.20;;
64063;SDS011;50314;50.618;10.642;2023-03-01T09:37:31;4.05;;;2.50;;
64063;SDS011;50314;50.618;10.642;2023-03-01T09:39:58;5.00;;;3.13;;
64063;SDS011;50314;50.618;10.642;2023-03-01T09:42:24;4.70;;;2.85;;
64063;SDS011;50314;50.618;10.642;2023-03-01T09:47:44;4.40;;;2.22;;
64063;SDS011;50314;50.618;10.642;2023-03-01T09:50:14;4.43;;;2.58;;
64063;SDS011;50314;50.618;10.642;2023-03-01T10:01:10;4.60;;;2.38;;
64063;SDS011;50314;50.618;10.642;2023-03-01T10:04:23;5.10;;;2.40;;
64063;SDS011;50314;50.618;10.642;2023-03-01T10:09:24;5.32;;;2.42;;
64063;SDS011;50314;50.618;10.642;2023-03-01T10:11:54;3.85;;;2.40;;
64063;SDS011;50314;50.618;10.642;2023-03-01T10:14:33;3.28;;;2.28;;
64063;SDS011;50314;50.618;10.642;2023-03-01T10:19:42;3.95;;;2.65;;
64063;SDS011;50314;50.618;10.642;2023-03-01T10:22:16;3.55;;;2.25;;
64063;SDS011;50314;50.618;10.642;2023-03-01T10:24:43;3.88;;;2.38;;
64063;SDS011;50314;50.618;10.642;2023-03-01T10:29:43;4.70;;;2.55;;
64063;SDS011;50314;50.618;10.642;2023-03-01T10:32:21;3.85;;;2.20;;
64063;SDS011;50314;50.618;10.642;2023-03-01T10:34:47;4.00;;;2.50;;
64063;SDS011;50314;50.618;10.642;2023-03-01T10:37:17;3.30;;;2.20;;
64063;SDS011;50314;50.618;10.642;2023-03-01T10:39:54;4.18;;;2.55;;
64063;SDS011;50314;50.618;10.642;2023-03-01T10:42:28;3.40;;;2.28;;
64063;SDS011;50314;50.618;10.642;2023-03-01T10:44:56;3.00;;;2.00;;
64063;SDS011;50314;50.618;10.642;2023-03-01T10:47:23;3.42;;;2.10;;
64063;SDS011;50314;50.618;10.642;2023-03-01T10:52:29;4.28;;;2.22;;
64063;SDS011;50314;50.618;10.642;2023-03-01T10:55:03;3.50;;;2.33;;
64063;SDS011;50314;50.618;10.642;2023-03-01T10:57:48;4.40;;;2.58;;
64063;SDS011;50314;50.618;10.642;2023-03-01T11:02:45;4.55;;;2.33;;
64063;SDS011;50314;50.618;10.642;2023-03-01T11:05:16;3.13;;;2.10;;
64063;SDS011;50314;50.618;10.642;2023-03-01T11:07:49;3.10;;;2.08;;
64063;SDS011;50314;50.618;10.642;2023-03-01T11:10:22;4.20;;;2.42;;
64063;SDS011;50314;50.618;10.642;2023-03-01T11:12:47;3.45;;;2.70;;
64063;SDS011;50314;50.618;10.642;2023-03-01T11:15:20;3.60;;;2.60;;
64063;SDS011;50314;50.618;10.642;2023-03-01T11:17:50;5.55;;;3.03;;
64063;SDS011;50314;50.618;10.642;2023-03-01T11:22:55;5.18;;;3.17;;
64063;SDS011;50314;50.618;10.642;2023-03-01T11:25:26;5.35;;;2.85;;
64063;SDS011;50314;50.618;10.642;2023-03-01T11:27:54;6.32;;;3.65;;
64063;SDS011;50314;50.618;10.642;2023-03-01T11:36:08;5.45;;;3.35;;
64063;SDS011;50314;50.618;10.642;2023-03-01T11:38:44;5.28;;;3.17;;
64063;SDS011;50314;50.618;10.642;2023-03-01T11:41:17;5.70;;;3.00;;
64063;SDS011;50314;50.618;10.642;2023-03-01T11:49:00;6.32;;;3.00;;
64063;SDS011;50314;50.618;10.642;2023-03-01T11:51:53;4.65;;;2.90;;
64063;SDS011;50314;50.618;10.642;2023-03-01T11:54:39;4.68;;;2.95;;
64063;SDS011;50314;50.618;10.642;2023-03-01T12:10:43;5.30;;;2.78;;
64063;SDS011;50314;50.618;10.642;2023-03-01T12:30:22;3.42;;;2.40;;
64063;SDS011;50314;50.618;10.642;2023-03-01T12:47:07;3.33;;;2.00;;
64063;SDS011;50314;50.618;10.642;2023-03-01T12:50:03;3.15;;;2.28;;
64063;SDS011;50314;50.618;10.642;2023-03-01T12:52:41;2.67;;;1.88;;
64063;SDS011;50314;50.618;10.642;2023-03-01T12:55:30;3.33;;;2.53;;
64063;SDS011;50314;50.618;10.642;2023-03-01T13:09:21;4.18;;;2.58;;
64063;SDS011;50314;50.618;10.642;2023-03-01T13:11:48;5.72;;;3.13;;
64063;SDS011;50314;50.618;10.642;2023-03-01T13:16:45;3.97;;;2.65;;
64063;SDS011;50314;50.618;10.642;2023-03-01T13:21:46;4.53;;;2.80;;
64063;SDS011;50314;50.618;10.642;2023-03-01T13:29:58;5.18;;;2.35;;
64063;SDS011;50314;50.618;10.642;2023-03-01T13:32:35;4.55;;;2.20;;
64063;SDS011;50314;50.618;10.642;2023-03-01T13:37:40;3.58;;;2.13;;
64063;SDS011;50314;50.618;10.642;2023-03-01T13:42:51;5.03;;;3.97;;
64063;SDS011;50314;50.618;10.642;2023-03-01T13:47:54;7.70;;;5.25;;
64063;SDS011;50314;50.618;10.642;2023-03-01T13:50:24;6.53;;;4.90;;
64063;SDS011;50314;50.618;10.642;2023-03-01T13:55:34;5.38;;;3.67;;
64063;SDS011;50314;50.618;10.642;2023-03-01T14:00:47;5.10;;;3.58;;
64063;SDS011;50314;50.618;10.642;2023-03-01T14:08:37;5.22;;;3.55;;
64063;SDS011;50314;50.618;10.642;2023-03-01T14:19:55;4.28;;;2.80;;
64063;SDS011;50314;50.618;10.642;2023-03-01T14:22:27;5.88;;;3.50;;
64063;SDS011;50314;50.618;10.642;2023-03-01T14:24:58;3.33;;;2.58;;
64063;SDS011;50314;50.618;10.642;2023-03-01T14:27:35;5.93;;;3.33;;
64063;SDS011;50314;50.618;10.642;2023-03-01T14:30:10;5.93;;;2.63;;
64063;SDS011;50314;50.618;10.642;2023-03-01T14:32:39;3.65;;;2.78;;
64063;SDS011;50314;50.618;10.642;2023-03-01T14:35:19;3.97;;;2.97;;
64063;SDS011;50314;50.618;10.642;2023-03-01T14:37:49;4.28;;;2.88;;
64063;SDS011;50314;50.618;10.642;2023-03-01T14:42:54;4.28;;;2.65;;
64063;SDS011;50314;50.618;10.642;2023-03-01T14:45:23;4.13;;;2.58;;
64063;SDS011;50314;50.618;10.642;2023-03-01T14:47:51;5.45;;;3.15;;
64063;SDS011;50314;50.618;10.642;2023-03-01T14:50:20;4.68;;;2.72;;
64063;SDS011;50314;50.618;10.642;2023-03-01T14:52:50;3.88;;;3.13;;
64063;SDS011;50314;50.618;10.642;2023-03-01T14:55:25;4.53;;;3.05;;
64063;SDS011;50314;50.618;10.642;2023-03-01T14:57:56;4.72;;;3.45;;
64063;SDS011;50314;50.618;10.642;2023-03-01T15:00:24;5.03;;;3.70;;
64063;SDS011;50314;50.618;10.642;2023-03-01T15:02:53;4.82;;;3.30;;
64063;SDS011;50314;50.618;10.642;2023-03-01T15:05:23;7.07;;;3.88;;
64063;SDS011;50314;50.618;10.642;2023-03-01T15:07:52;5.20;;;3.60;;
64063;SDS011;50314;50.618;10.642;2023-03-01T15:10:20;4.57;;;3.33;;
64063;SDS011;50314;50.618;10.642;2023-03-01T15:12:50;5.13;;;3.53;;
64063;SDS011;50314;50.618;10.642;2023-03-01T15:17:58;4.07;;;2.78;;
64063;SDS011;50314;50.618;10.642;2023-03-01T15:20:26;4.70;;;3.00;;
64063;SDS011;50314;50.618;10.642;2023-03-01T15:22:54;4.63;;;3.42;;
64063;SDS011;50314;50.618;10.642;2023-03-01T15:25:27;4.50;;;3.00;;
64063;SDS011;50314;50.618;10.642;2023-03-01T15:27:55;4.55;;;3.28;;
64063;SDS011;50314;50.618;10.642;2023-03-01T15:30:30;4.55;;;3.03;;
64063;SDS011;50314;50.618;10.642;2023-03-01T15:36:00;4.32;;;2.65;;
64063;SDS011;50314;50.618;10.642;2023-03-01T15:38:29;4.50;;;3.42;;
64063;SDS011;50314;50.618;10.642;2023-03-01T15:40:56;4.25;;;2.97;;
64063;SDS011;50314;50.618;10.642;2023-03-01T15:43:43;5.40;;;3.60;;
64063;SDS011;50314;50.618;10.642;2023-03-01T15:52:00;5.88;;;3.00;;
64063;SDS011;50314;50.618;10.642;2023-03-01T15:54:26;4.70;;;2.78;;
64063;SDS011;50314;50.618;10.642;2023-03-01T15:56:52;4.38;;;3.00;;
64063;SDS011;50314;50.618;10.642;2023-03-01T15:59:18;4.13;;;3.17;;
64063;SDS011;50314;50.618;10.642;2023-03-01T16:01:44;5.40;;;3.10;;
64063;SDS011;50314;50.618;10.642;2023-03-01T16:04:11;4.55;;;2.83;;
64063;SDS011;50314;50.618;10.642;2023-03-01T16:06:49;4.38;;;2.88;;
64063;SDS011;50314;50.618;10.642;2023-03-01T16:09:19;5.00;;;2.88;;
64063;SDS011;50314;50.618;10.642;2023-03-01T16:11:46;4.60;;;3.53;;
64063;SDS011;50314;50.618;10.642;2023-03-01T16:14:11;4.78;;;2.90;;
64063;SDS011;50314;50.618;10.642;2023-03-01T16:16:37;4.10;;;2.83;;
64063;SDS011;50314;50.618;10.642;2023-03-01T16:19:02;3.95;;;2.80;;
64063;SDS011;50314;50.618;10.642;2023-03-01T16:21:28;4.90;;;2.67;;
64063;SDS011;50314;50.618;10.642;2023-03-01T16:23:53;3.90;;;2.83;;
64063;SDS011;50314;50.618;10.642;2023-03-01T16:26:19;3.45;;;2.60;;
64063;SDS011;50314;50.618;10.642;2023-03-01T16:28:44;5.00;;;2.85;;
64063;SDS011;50314;50.618;10.642;2023-03-01T16:31:11;4.40;;;2.63;;
64063;SDS011;50314;50.618;10.642;2023-03-01T16:33:39;4.10;;;2.67;;
64063;SDS011;50314;50.618;10.642;2023-03-01T16:36:08;5.10;;;2.88;;
64063;SDS011;50314;50.618;10.642;2023-03-01T16:38:35;6.38;;;3.05;;
64063;SDS011;50314;50.618;10.642;2023-03-01T16:41:01;3.80;;;2.47;;
64063;SDS011;50314;50.618;10.642;2023-03-01T16:43:26;4.15;;;2.78;;
64063;SDS011;50314;50.618;10.642;2023-03-01T16:45:52;4.15;;;2.65;;
64063;SDS011;50314;50.618;10.642;2023-03-01T16:48:17;3.60;;;2.42;;
64063;SDS011;50314;50.618;10.642;2023-03-01T16:50:43;3.83;;;2.50;;
64063;SDS011;50314;50.618;10.642;2023-03-01T16:53:09;3.47;;;2.45;;
64063;SDS011;50314;50.618;10.642;2023-03-01T16:55:35;4.80;;;2.67;;
64063;SDS011;50314;50.618;10.642;2023-03-01T16:58:00;4.60;;;3.03;;
64063;SDS011;50314;50.618;10.642;2023-03-01T17:00:26;3.45;;;2.70;;
64063;SDS011;50314;50.618;10.642;2023-03-01T17:02:52;3.55;;;2.67;;
64063;SDS011;50314;50.618;10.642;2023-03-01T17:05:18;3.70;;;2.60;;
64063;SDS011;50314;50.618;10.642;2023-03-01T17:07:46;4.15;;;2.47;;
64063;SDS011;50314;50.618;10.642;2023-03-01T17:10:11;3.35;;;2.45;;
64063;SDS011;50314;50.618;10.642;2023-03-01T17:12:37;4.18;;;2.60;;
64063;SDS011;50314;50.618;10.642;2023-03-01T17:15:03;3.92;;;2.53;;
64063;SDS011;50314;50.618;10.642;2023-03-01T17:17:30;3.53;;;2.17;;